sensor_id;sensor_type;location;lat;lon;timestamp;pressure;altitude;pressure_sealevel;temperature;humidity
20696;BME280;10507;52.754;13.040;2022-08-01T00:00:22;100895.81;;;19.77;100.00
20696;BME280;10507;52.754;13.040;2022-08-01T00:02:53;100902.25;;;19.65;100.00
20696;BME280;10507;52.754;13.040;2022-08-01T00:05:27;100912.38;;;19.51;100.00
20696;BME280;10507;52.754;13.040;2022-08-01T00:08:06;100928.19;;;19.35;100.00
20696;BME280;10507;52.754;13.040;2022-08-01T00:10:51;100944.47;;;19.24;100.00
20696;BME280;10507;52.754;13.040;2022-08-01T00:13:32;100941.53;;;19.04;100.00
20696;BME280;10507;52.754;13.040;2022-08-01T00:16:06;100977.94;;;19.00;100.00
20696;BME280;10507;52.754;13.040;2022-08-01T00:18:34;100977.19;;;18.87;100.00
20696;BME280;10507;52.754;13.040;2022-08-01T00:21:05;101018.03;;;18.84;100.00
20696;BME280;10507;52.754;13.040;2022-08-01T00:23:39;101054.06;;;18.84;100.00
20696;BME280;10507;52.754;13.040;2022-08-01T00:26:10;101064.63;;;18.87;100.00
20696;BME280;10507;52.754;13.040;2022-08-01T00:28:39;101065.72;;;18.85;100.00
20696;BME280;10507;52.754;13.040;2022-08-01T00:31:08;101099.31;;;18.82;100.00
20696;BME280;10507;52.754;13.040;2022-08-01T00:33:36;101124.66;;;18.81;100.00
20696;BME280;10507;52.754;13.040;2022-08-01T00:36:07;101159.94;;;18.80;100.00
20696;BME280;10507;52.754;13.040;2022-08-01T00:38:35;101174.31;;;18.80;100.00
20696;BME280;10507;52.754;13.040;2022-08-01T00:41:02;101195.63;;;18.72;100.00
20696;BME280;10507;52.754;13.040;2022-08-01T00:43:30;101224.31;;;18.75;100.00
20696;BME280;10507;52.754;13.040;2022-08-01T00:45:58;101233.28;;;18.75;100.00
20696;BME280;10507;52.754;13.040;2022-08-01T00:48:29;101262.00;;;18.78;100.00
20696;BME280;10507;52.754;13.040;2022-08-01T00:51:02;101268.34;;;18.77;100.00
20696;BME280;10507;52.754;13.040;2022-08-01T00:53:32;101275.81;;;18.73;100.00
20696;BME280;10507;52.754;13.040;2022-08-01T00:56:19;101287.31;;;18.77;100.00
20696;BME280;10507;52.754;13.040;2022-08-01T00:58:47;101295.72;;;18.72;100.00
20696;BME280;10507;52.754;13.040;2022-08-01T01:01:16;101328.09;;;18.74;100.00
20696;BME280;10507;52.754;13.040;2022-08-01T01:03:44;101356.00;;;18.74;100.00
20696;BME280;10507;52.754;13.040;2022-08-01T01:06:37;101391.91;;;18.76;100.00
20696;BME280;10507;52.754;13.040;2022-08-01T01:09:18;101426.69;;;18.82;100.00
20696;BME280;10507;52.754;13.040;2022-08-01T01:11:59;101414.16;;;18.81;100.00
20696;BME280;10507;52.754;13.040;2022-08-01T01:14:34;101394.84;;;18.73;100.00
20696;BME280;10507;52.754;13.040;2022-08-01T01:17:05;101430.50;;;18.80;100.00
20696;BME280;10507;52.754;13.040;2022-08-01T01:19:39;101429.78;;;18.76;100.00
20696;BME280;10507;52.754;13.040;2022-08-01T01:22:35;101417.34;;;18.74;100.00
20696;BME280;10507;52.754;13.040;2022-08-01T01:25:21;101443.66;;;18.72;100.00
20696;BME280;10507;52.754;13.040;2022-08-01T01:28:02;101431.78;;;18.61;100.00
20696;BME280;10507;52.754;13.040;2022-08-01T01:30:37;101442.03;;;18.56;100.00
20696;BME280;10507;52.754;13.040;2022-08-01T01:33:08;101497.13;;;18.55;100.00
20696;BME280;10507;52.754;13.040;2022-08-01T01:35:42;101498.41;;;18.49;100.00
20696;BME280;10507;52.754;13.040;2022-08-01T01:38:15;101495.38;;;18.41;100.00
20696;BME280;10507;52.754;13.040;2022-08-01T01:40:45;101514.63;;;18.37;100.00
20696;BME280;10507;52.754;13.040;2022-08-01T01:43:16;101531.94;;;18.34;100.00
20696;BME280;10507;52.754;13.040;2022-08-01T01:45:48;101549.97;;;18.34;100.00
20696;BME280;10507;52.754;13.040;2022-08-01T01:48:20;101567.09;;;18.34;100.00
20696;BME280;10507;52.754;13.040;2022-08-01T01:50:49;101559.28;;;18.30;100.00
20696;BME280;10507;52.754;13.040;2022-08-01T01:53:20;101558.53;;;18.27;100.00
20696;BME280;10507;52.754;13.040;2022-08-01T01:55:52;101573.00;;;18.26;100.00
20696;BME280;10507;52.754;13.040;2022-08-01T01:58:22;101583.81;;;18.26;100.00
20696;BME280;10507;52.754;13.040;2022-08-01T02:00:52;101597.25;;;18.28;100.00
20696;BME280;10507;52.754;13.040;2022-08-01T02:03:22;101595.38;;;18.28;100.00
20696;BME280;10507;52.754;13.040;2022-08-01T02:05:52;101610.44;;;18.33;100.00
20696;BME280;10507;52.754;13.040;2022-08-01T02:08:21;101629.06;;;18.37;100.00
20696;BME280;10507;52.754;13.040;2022-08-01T02:10:51;101642.19;;;18.43;100.00
20696;BME280;10507;52.754;13.040;2022-08-01T02:13:39;101631.03;;;18.48;100.00
20696;BME280;10507;52.754;13.040;2022-08-01T02:16:11;101631.69;;;18.52;100.00
20696;BME280;10507;52.754;13.040;2022-08-01T02:18:41;101617.09;;;18.54;100.00
20696;BME280;10507;52.754;13.040;2022-08-01T02:21:12;101630.50;;;18.56;100.00
20696;BME280;10507;52.754;13.040;2022-08-01T02:23:42;101595.56;;;18.53;100.00
20696;BME280;10507;52.754;13.040;2022-08-01T02:26:14;101589.09;;;18.55;100.00
20696;BME280;10507;52.754;13.040;2022-08-01T02:28:47;101596.22;;;18.56;100.00
20696;BME280;10507;52.754;13.040;2022-08-01T02:31:18;101605.22;;;18.57;100.00
20696;BME280;10507;52.754;13.040;2022-08-01T02:33:53;101626.53;;;18.61;100.00
20696;BME280;10507;52.754;13.040;2022-08-01T02:36:25;101657.06;;;18.63;100.00
20696;BME280;10507;52.754;13.040;2022-08-01T02:39:00;101665.03;;;18.65;100.00
20696;BME280;10507;52.754;13.040;2022-08-01T02:41:30;101667.56;;;18.68;100.00
20696;BME280;10507;52.754;13.040;2022-08-01T02:44:02;101650.44;;;18.67;100.00
20696;BME280;10507;52.754;13.040;2022-08-01T02:46:34;101620.69;;;18.67;100.00
20696;BME280;10507;52.754;13.040;2022-08-01T02:49:06;101623.28;;;18.69;100.00
20696;BME280;10507;52.754;13.040;2022-08-01T02:51:36;101643.66;;;18.75;100.00
20696;BME280;10507;52.754;13.040;2022-08-01T02:54:06;101633.50;;;18.78;100.00
20696;BME280;10507;52.754;13.040;2022-08-01T02:56:41;101611.19;;;18.75;100.00
20696;BME280;10507;52.754;13.040;2022-08-01T02:59:24;101646.94;;;18.80;100.00
20696;BME280;10507;52.754;13.040;2022-08-01T03:02:00;101608.50;;;18.75;100.00
20696;BME280;10507;52.754;13.040;2022-08-01T03:04:30;101594.78;;;18.78;100.00
20696;BME280;10507;52.754;13.040;2022-08-01T03:07:00;101599.31;;;18.77;100.00
20696;BME280;10507;52.754;13.040;2022-08-01T03:09:31;101609.25;;;18.77;100.00
20696;BME280;10507;52.754;13.040;2022-08-01T03:12:20;101618.13;;;18.79;100.00
20696;BME280;10507;52.754;13.040;2022-08-01T03:14:56;101639.69;;;18.80;100.00
20696;BME280;10507;52.754;13.040;2022-08-01T03:17:31;101640.66;;;18.79;100.00
20696;BME280;10507;52.754;13.040;2022-08-01T03:20:05;101650.59;;;18.79;100.00
20696;BME280;10507;52.754;13.040;2022-08-01T03:22:38;101653.31;;;18.79;100.00
20696;BME280;10507;52.754;13.040;2022-08-01T03:25:08;101679.50;;;18.78;100.00
20696;BME280;10507;52.754;13.040;2022-08-01T03:27:36;101706.38;;;18.81;100.00
20696;BME280;10507;52.754;13.040;2022-08-01T03:30:05;101703.75;;;18.80;100.00
20696;BME280;10507;52.754;13.040;2022-08-01T03:32:35;101712.84;;;18.79;100.00
20696;BME280;10507;52.754;13.040;2022-08-01T03:35:04;101731.59;;;18.82;100.00
20696;BME280;10507;52.754;13.040;2022-08-01T03:37:36;101721.63;;;18.82;100.00
20696;BME280;10507;52.754;13.040;2022-08-01T03:40:31;101680.28;;;18.80;100.00
20696;BME280;10507;52.754;13.040;2022-08-01T03:43:05;101665.88;;;18.80;100.00
20696;BME280;10507;52.754;13.040;2022-08-01T03:45:37;101674.88;;;18.80;100.00
20696;BME280;10507;52.754;13.040;2022-08-01T03:48:10;101685.78;;;18.79;100.00
20696;BME280;10507;52.754;13.040;2022-08-01T03:50:43;101707.16;;;18.83;100.00
20696;BME280;10507;52.754;13.040;2022-08-01T03:53:13;101695.34;;;18.84;100.00
20696;BME280;10507;52.754;13.040;2022-08-01T03:55:43;101693.41;;;18.86;100.00
20696;BME280;10507;52.754;13.040;2022-08-01T03:58:11;101686.13;;;18.87;100.00
20696;BME280;10507;52.754;13.040;2022-08-01T04:00:40;101706.59;;;18.91;100.00
20696;BME280;10507;52.754;13.040;2022-08-01T04:03:12;101703.03;;;18.90;100.00
20696;BME280;10507;52.754;13.040;2022-08-01T04:05:40;101704.97;;;18.88;100.00
20696;BME280;10507;52.754;13.040;2022-08-01T04:08:08;101719.28;;;18.90;100.00
20696;BME280;10507;52.754;13.040;2022-08-01T04:10:40;101723.63;;;18.93;100.00
20696;BME280;10507;52.754;13.040;2022-08-01T04:13:08;101711.03;;;18.92;100.00
20696;BME280;10507;52.754;13.040;2022-08-01T04:15:36;101677.25;;;18.85;100.00
20696;BME280;10507;52.754;13.040;2022-08-01T04:18:04;101737.34;;;18.90;100.00
20696;BME280;10507;52.754;13.040;2022-08-01T04:20:34;101757.16;;;18.90;100.00
20696;BME280;10507;52.754;13.040;2022-08-01T04:23:02;101768.00;;;18.90;100.00
20696;BME280;10507;52.754;13.040;2022-08-01T04:25:33;101795.06;;;18.90;100.00
20696;BME280;10507;52.754;13.040;2022-08-01T04:28:03;101813.88;;;18.92;100.00
20696;BME280;10507;52.754;13.040;2022-08-01T04:30:35;101836.22;;;18.96;100.00
20696;BME280;10507;52.754;13.040;2022-08-01T04:33:06;101845.78;;;19.01;100.00
20696;BME280;10507;52.754;13.040;2022-08-01T04:35:39;101827.69;;;19.02;100.00
20696;BME280;10507;52.754;13.040;2022-08-01T04:38:30;101809.81;;;18.99;100.00
20696;BME280;10507;52.754;13.040;2022-08-01T04:40:59;101816.72;;;19.03;100.00
20696;BME280;10507;52.754;13.040;2022-08-01T04:43:35;101811.75;;;18.97;100.00
20696;BME280;10507;52.754;13.040;2022-08-01T04:46:05;101868.06;;;19.05;100.00
20696;BME280;10507;52.754;13.040;2022-08-01T04:48:43;101885.94;;;19.07;100.00
20696;BME280;10507;52.754;13.040;2022-08-01T04:51:15;101867.00;;;19.07;100.00
20696;BME280;10507;52.754;13.040;2022-08-01T04:54:00;101880.13;;;19.14;100.00
20696;BME280;10507;52.754;13.040;2022-08-01T04:56:55;101843.31;;;19.11;100.00
20696;BME280;10507;52.754;13.040;2022-08-01T04:59:26;101834.00;;;19.15;100.00
20696;BME280;10507;52.754;13.040;2022-08-01T05:02:13;101823.94;;;19.17;100.00
20696;BME280;10507;52.754;13.040;2022-08-01T05:04:42;101811.19;;;19.19;100.00
20696;BME280;10507;52.754;13.040;2022-08-01T05:07:12;101809.44;;;19.18;100.00
20696;BME280;10507;52.754;13.040;2022-08-01T05:09:43;101828.16;;;19.21;100.00
20696;BME280;10507;52.754;13.040;2022-08-01T05:12:13;101843.22;;;19.25;100.00
20696;BME280;10507;52.754;13.040;2022-08-01T05:14:42;101828.06;;;19.23;100.00
20696;BME280;10507;52.754;13.040;2022-08-01T05:17:10;101751.38;;;20.25;100.00
20696;BME280;10507;52.754;13.040;2022-08-01T05:19:39;101395.75;;;20.29;100.00
20696;BME280;10507;52.754;13.040;2022-08-01T05:22:10;101268.09;;;20.76;100.00
20696;BME280;10507;52.754;13.040;2022-08-01T05:24:39;101092.50;;;20.88;100.00
20696;BME280;10507;52.754;13.040;2022-08-01T05:27:10;101090.50;;;20.90;100.00
20696;BME280;10507;52.754;13.040;2022-08-01T05:29:41;101085.50;;;21.16;100.00
20696;BME280;10507;52.754;13.040;2022-08-01T05:32:17;101012.78;;;21.20;100.00
20696;BME280;10507;52.754;13.040;2022-08-01T05:34:45;101009.94;;;21.21;100.00
20696;BME280;10507;52.754;13.040;2022-08-01T05:37:14;101051.88;;;21.38;100.00
20696;BME280;10507;52.754;13.040;2022-08-01T05:39:42;100993.94;;;21.28;100.00
20696;BME280;10507;52.754;13.040;2022-08-01T05:42:15;100995.84;;;21.37;100.00
20696;BME280;10507;52.754;13.040;2022-08-01T05:44:43;101001.28;;;21.37;100.00
20696;BME280;10507;52.754;13.040;2022-08-01T05:47:11;101038.22;;;21.49;100.00
20696;BME280;10507;52.754;13.040;2022-08-01T05:49:41;101017.56;;;21.37;100.00
20696;BME280;10507;52.754;13.040;2022-08-01T05:52:14;100994.06;;;21.26;100.00
20696;BME280;10507;52.754;13.040;2022-08-01T05:54:57;101029.78;;;20.91;100.00
20696;BME280;10507;52.754;13.040;2022-08-01T05:57:35;101109.44;;;20.80;100.00
20696;BME280;10507;52.754;13.040;2022-08-01T06:00:40;101113.06;;;20.69;100.00
20696;BME280;10507;52.754;13.040;2022-08-01T06:03:16;101116.31;;;20.63;100.00
20696;BME280;10507;52.754;13.040;2022-08-01T06:05:47;101154.31;;;20.63;100.00
20696;BME280;10507;52.754;13.040;2022-08-01T06:08:15;101156.41;;;20.60;100.00
20696;BME280;10507;52.754;13.040;2022-08-01T06:10:44;101153.56;;;20.50;100.00
20696;BME280;10507;52.754;13.040;2022-08-01T06:13:12;101193.75;;;20.56;100.00
20696;BME280;10507;52.754;13.040;2022-08-01T06:15:41;101210.75;;;20.69;100.00
20696;BME280;10507;52.754;13.040;2022-08-01T06:18:08;101197.53;;;20.76;100.00
20696;BME280;10507;52.754;13.040;2022-08-01T06:20:39;101260.44;;;21.13;100.00
20696;BME280;10507;52.754;13.040;2022-08-01T06:23:07;101203.50;;;21.44;100.00
20696;BME280;10507;52.754;13.040;2022-08-01T06:25:56;101131.84;;;21.76;100.00
20696;BME280;10507;52.754;13.040;2022-08-01T06:28:24;101056.38;;;22.09;100.00
20696;BME280;10507;52.754;13.040;2022-08-01T06:30:52;100941.28;;;21.98;100.00
20696;BME280;10507;52.754;13.040;2022-08-01T06:33:20;100885.50;;;21.85;100.00
20696;BME280;10507;52.754;13.040;2022-08-01T06:35:48;100924.69;;;22.11;100.00
20696;BME280;10507;52.754;13.040;2022-08-01T06:38:16;100953.88;;;22.38;99.25
20696;BME280;10507;52.754;13.040;2022-08-01T06:40:45;100972.13;;;22.75;97.58
20696;BME280;10507;52.754;13.040;2022-08-01T06:43:15;100895.88;;;22.85;96.57
20696;BME280;10507;52.754;13.040;2022-08-01T06:45:43;100941.53;;;23.01;96.31
20696;BME280;10507;52.754;13.040;2022-08-01T06:48:11;100896.59;;;23.15;95.12
20696;BME280;10507;52.754;13.040;2022-08-01T06:50:39;100837.41;;;22.79;96.02
20696;BME280;10507;52.754;13.040;2022-08-01T06:53:07;100833.78;;;22.89;95.95
20696;BME280;10507;52.754;13.040;2022-08-01T06:55:35;100793.78;;;22.71;96.16
20696;BME280;10507;52.754;13.040;2022-08-01T06:58:02;100739.94;;;22.65;96.10
20696;BME280;10507;52.754;13.040;2022-08-01T07:00:32;100757.69;;;22.41;96.78
20696;BME280;10507;52.754;13.040;2022-08-01T07:03:01;100770.88;;;22.36;97.26
20696;BME280;10507;52.754;13.040;2022-08-01T07:05:29;100744.88;;;22.24;97.72
20696;BME280;10507;52.754;13.040;2022-08-01T07:08:00;100744.28;;;22.20;97.62
20696;BME280;10507;52.754;13.040;2022-08-01T07:10:29;100714.38;;;21.93;98.55
20696;BME280;10507;52.754;13.040;2022-08-01T07:12:57;100735.59;;;21.70;100.00
20696;BME280;10507;52.754;13.040;2022-08-01T07:15:26;100787.53;;;21.67;100.00
20696;BME280;10507;52.754;13.040;2022-08-01T07:17:59;100833.00;;;21.65;100.00
20696;BME280;10507;52.754;13.040;2022-08-01T07:20:33;100791.94;;;21.38;100.00
20696;BME280;10507;52.754;13.040;2022-08-01T07:23:20;100826.25;;;21.30;100.00
20696;BME280;10507;52.754;13.040;2022-08-01T07:25:59;100795.66;;;21.18;100.00
20696;BME280;10507;52.754;13.040;2022-08-01T07:28:28;100818.38;;;21.07;100.00
20696;BME280;10507;52.754;13.040;2022-08-01T07:30:57;100803.22;;;20.95;100.00
20696;BME280;10507;52.754;13.040;2022-08-01T07:33:26;100872.53;;;20.99;100.00
20696;BME280;10507;52.754;13.040;2022-08-01T07:36:14;100874.53;;;21.07;100.00
20696;BME280;10507;52.754;13.040;2022-08-01T07:38:41;100914.59;;;21.24;100.00
20696;BME280;10507;52.754;13.040;2022-08-01T07:41:10;100938.09;;;21.45;100.00
20696;BME280;10507;52.754;13.040;2022-08-01T07:43:38;100862.88;;;21.35;100.00
20696;BME280;10507;52.754;13.040;2022-08-01T07:46:10;100899.31;;;21.33;100.00
20696;BME280;10507;52.754;13.040;2022-08-01T07:48:40;100894.94;;;21.42;100.00
20696;BME280;10507;52.754;13.040;2022-08-01T07:51:08;100922.53;;;21.56;100.00
20696;BME280;10507;52.754;13.040;2022-08-01T07:53:37;100885.22;;;21.58;100.00
20696;BME280;10507;52.754;13.040;2022-08-01T07:56:07;100840.59;;;21.61;100.00
20696;BME280;10507;52.754;13.040;2022-08-01T07:58:36;100841.59;;;21.79;100.00
20696;BME280;10507;52.754;13.040;2022-08-01T08:01:04;100800.81;;;21.70;100.00
20696;BME280;10507;52.754;13.040;2022-08-01T08:03:33;100776.78;;;21.65;100.00
20696;BME280;10507;52.754;13.040;2022-08-01T08:06:04;100835.44;;;21.68;100.00
20696;BME280;10507;52.754;13.040;2022-08-01T08:08:32;100858.75;;;21.70;100.00
20696;BME280;10507;52.754;13.040;2022-08-01T08:11:01;100754.38;;;21.53;100.00
20696;BME280;10507;52.754;13.040;2022-08-01T08:13:29;100818.56;;;21.54;100.00
20696;BME280;10507;52.754;13.040;2022-08-01T08:15:58;100754.78;;;21.39;100.00
20696;BME280;10507;52.754;13.040;2022-08-01T08:18:27;100801.69;;;21.41;100.00
20696;BME280;10507;52.754;13.040;2022-08-01T08:20:55;100764.63;;;21.21;100.00
20696;BME280;10507;52.754;13.040;2022-08-01T08:23:31;100780.38;;;21.17;100.00
20696;BME280;10507;52.754;13.040;2022-08-01T08:26:17;100798.81;;;21.04;100.00
20696;BME280;10507;52.754;13.040;2022-08-01T08:28:46;100804.19;;;20.94;100.00
20696;BME280;10507;52.754;13.040;2022-08-01T08:31:15;100882.78;;;20.95;100.00
20696;BME280;10507;52.754;13.040;2022-08-01T08:33:51;100872.34;;;20.91;100.00
20696;BME280;10507;52.754;13.040;2022-08-01T08:36:19;100878.31;;;20.85;100.00
20696;BME280;10507;52.754;13.040;2022-08-01T08:38:58;100799.47;;;20.76;100.00
20696;BME280;10507;52.754;13.040;2022-08-01T08:41:29;100819.91;;;20.81;100.00
20696;BME280;10507;52.754;13.040;2022-08-01T08:44:04;100842.59;;;20.80;100.00
20696;BME280;10507;52.754;13.040;2022-08-01T08:46:40;100880.78;;;20.88;100.00
20696;BME280;10507;52.754;13.040;2022-08-01T08:49:10;100867.34;;;20.86;100.00
20696;BME280;10507;52.754;13.040;2022-08-01T08:51:42;100805.34;;;20.82;100.00
20696;BME280;10507;52.754;13.040;2022-08-01T08:54:13;100844.22;;;20.92;100.00
20696;BME280;10507;52.754;13.040;2022-08-01T08:56:43;100844.22;;;20.92;100.00
20696;BME280;10507;52.754;13.040;2022-08-01T08:59:12;100814.38;;;20.92;100.00
20696;BME280;10507;52.754;13.040;2022-08-01T09:01:45;100831.94;;;20.97;100.00
20696;BME280;10507;52.754;13.040;2022-08-01T09:04:14;100826.19;;;20.91;100.00
20696;BME280;10507;52.754;13.040;2022-08-01T09:06:49;100833.50;;;21.00;100.00
20696;BME280;10507;52.754;13.040;2022-08-01T09:09:19;100834.66;;;21.07;100.00
20696;BME280;10507;52.754;13.040;2022-08-01T09:11:49;100880.88;;;21.27;100.00
20696;BME280;10507;52.754;13.040;2022-08-01T09:14:24;100884.63;;;21.45;100.00
20696;BME280;10507;52.754;13.040;2022-08-01T09:17:00;100912.97;;;21.72;100.00
20696;BME280;10507;52.754;13.040;2022-08-01T09:19:35;100906.81;;;21.89;99.87
20696;BME280;10507;52.754;13.040;2022-08-01T09:22:07;100932.41;;;22.16;99.31
20696;BME280;10507;52.754;13.040;2022-08-01T09:24:38;100902.31;;;22.47;97.33
20696;BME280;10507;52.754;13.040;2022-08-01T09:27:17;100892.19;;;22.67;96.92
20696;BME280;10507;52.754;13.040;2022-08-01T09:29:48;100908.53;;;23.04;95.17
20696;BME280;10507;52.754;13.040;2022-08-01T09:32:28;100884.69;;;23.34;93.88
20696;BME280;10507;52.754;13.040;2022-08-01T09:35:22;100802.19;;;23.41;92.36
20696;BME280;10507;52.754;13.040;2022-08-01T09:38:12;100746.97;;;23.39;90.99
20696;BME280;10507;52.754;13.040;2022-08-01T09:40:47;100715.31;;;23.20;90.82
20696;BME280;10507;52.754;13.040;2022-08-01T09:43:16;100658.56;;;22.98;90.93
20696;BME280;10507;52.754;13.040;2022-08-01T09:45:44;100670.88;;;22.84;92.02
20696;BME280;10507;52.754;13.040;2022-08-01T09:48:16;100651.06;;;22.56;92.67
20696;BME280;10507;52.754;13.040;2022-08-01T09:50:46;100664.56;;;22.48;93.45
20696;BME280;10507;52.754;13.040;2022-08-01T09:53:15;100707.00;;;22.40;95.03
20696;BME280;10507;52.754;13.040;2022-08-01T09:56:08;100692.06;;;22.17;95.99
20696;BME280;10507;52.754;13.040;2022-08-01T09:58:54;100721.00;;;22.08;96.47
20696;BME280;10507;52.754;13.040;2022-08-01T10:01:26;100685.78;;;21.79;97.12
20696;BME280;10507;52.754;13.040;2022-08-01T10:04:05;100770.88;;;21.89;97.88
20696;BME280;10507;52.754;13.040;2022-08-01T10:06:36;100744.94;;;21.95;97.42
20696;BME280;10507;52.754;13.040;2022-08-01T10:09:04;100757.69;;;21.94;97.93
20696;BME280;10507;52.754;13.040;2022-08-01T10:11:34;100769.00;;;21.99;97.69
20696;BME280;10507;52.754;13.040;2022-08-01T10:14:05;100734.69;;;21.79;98.50
20696;BME280;10507;52.754;13.040;2022-08-01T10:16:34;100768.78;;;21.73;99.34
20696;BME280;10507;52.754;13.040;2022-08-01T10:19:06;100706.47;;;21.33;99.18
20696;BME280;10507;52.754;13.040;2022-08-01T10:21:41;100754.22;;;21.06;100.00
20696;BME280;10507;52.754;13.040;2022-08-01T10:24:26;100813.06;;;20.86;100.00
20696;BME280;10507;52.754;13.040;2022-08-01T10:26:58;100860.97;;;20.66;100.00
20696;BME280;10507;52.754;13.040;2022-08-01T10:29:41;100968.16;;;20.82;100.00
20696;BME280;10507;52.754;13.040;2022-08-01T10:32:25;101014.81;;;20.96;100.00
20696;BME280;10507;52.754;13.040;2022-08-01T10:34:55;100918.50;;;20.91;100.00
20696;BME280;10507;52.754;13.040;2022-08-01T10:37:24;100997.47;;;21.18;100.00
20696;BME280;10507;52.754;13.040;2022-08-01T10:39:53;101039.13;;;21.59;100.00
20696;BME280;10507;52.754;13.040;2022-08-01T10:42:44;100928.28;;;21.83;100.00
20696;BME280;10507;52.754;13.040;2022-08-01T10:45:14;100895.03;;;22.08;98.84
20696;BME280;10507;52.754;13.040;2022-08-01T10:47:48;100917.97;;;22.72;95.93
20696;BME280;10507;52.754;13.040;2022-08-01T10:50:23;100749.28;;;22.62;93.90
20696;BME280;10507;52.754;13.040;2022-08-01T10:53:08;100817.38;;;22.80;93.59
20696;BME280;10507;52.754;13.040;2022-08-01T10:55:50;100793.09;;;22.87;93.22
20696;BME280;10507;52.754;13.040;2022-08-01T10:58:26;100823.59;;;23.18;92.42
20696;BME280;10507;52.754;13.040;2022-08-01T11:01:15;100761.06;;;22.99;92.29
20696;BME280;10507;52.754;13.040;2022-08-01T11:03:57;100691.19;;;22.90;90.61
20696;BME280;10507;52.754;13.040;2022-08-01T11:06:36;100703.75;;;23.00;90.22
20696;BME280;10507;52.754;13.040;2022-08-01T11:09:23;100790.97;;;23.27;91.52
20696;BME280;10507;52.754;13.040;2022-08-01T11:12:05;100776.47;;;23.44;90.54
20696;BME280;10507;52.754;13.040;2022-08-01T11:15:19;100736.75;;;23.59;89.21
20696;BME280;10507;52.754;13.040;2022-08-01T11:17:57;100800.47;;;24.02;88.88
20696;BME280;10507;52.754;13.040;2022-08-01T11:20:27;100724.44;;;24.07;87.33
20696;BME280;10507;52.754;13.040;2022-08-01T11:23:24;100634.50;;;24.24;85.12
20696;BME280;10507;52.754;13.040;2022-08-01T11:26:20;100586.91;;;23.76;85.63
20696;BME280;10507;52.754;13.040;2022-08-01T11:29:16;100587.97;;;23.83;85.58
20696;BME280;10507;52.754;13.040;2022-08-01T11:31:49;100623.41;;;23.83;85.73
20696;BME280;10507;52.754;13.040;2022-08-01T11:34:55;100551.56;;;24.00;83.54
20696;BME280;10507;52.754;13.040;2022-08-01T11:37:24;100644.59;;;24.40;84.24
20696;BME280;10507;52.754;13.040;2022-08-01T11:40:16;100554.72;;;24.46;82.51
20696;BME280;10507;52.754;13.040;2022-08-01T11:42:45;100643.47;;;24.75;82.95
20696;BME280;10507;52.754;13.040;2022-08-01T11:45:15;100580.16;;;24.63;83.29
20696;BME280;10507;52.754;13.040;2022-08-01T11:47:48;100545.69;;;24.62;83.09
20696;BME280;10507;52.754;13.040;2022-08-01T11:50:33;100521.94;;;24.38;84.30
20696;BME280;10507;52.754;13.040;2022-08-01T11:53:04;100500.44;;;24.11;84.63
20696;BME280;10507;52.754;13.040;2022-08-01T11:55:33;100491.63;;;23.74;85.83
20696;BME280;10507;52.754;13.040;2022-08-01T11:58:03;100487.06;;;23.32;87.53
20696;BME280;10507;52.754;13.040;2022-08-01T12:00:32;100577.13;;;23.31;88.79
20696;BME280;10507;52.754;13.040;2022-08-01T12:03:03;100565.47;;;23.20;89.24
20696;BME280;10507;52.754;13.040;2022-08-01T12:05:34;100567.13;;;23.13;89.66
20696;BME280;10507;52.754;13.040;2022-08-01T12:08:08;100610.31;;;23.26;90.38
20696;BME280;10507;52.754;13.040;2022-08-01T12:10:36;100629.31;;;23.44;90.25
20696;BME280;10507;52.754;13.040;2022-08-01T12:13:15;100548.59;;;23.43;87.81
20696;BME280;10507;52.754;13.040;2022-08-01T12:15:44;100523.75;;;23.46;86.49
20696;BME280;10507;52.754;13.040;2022-08-01T12:18:17;100492.34;;;23.34;86.64
20696;BME280;10507;52.754;13.040;2022-08-01T12:20:46;100476.47;;;23.21;87.04
20696;BME280;10507;52.754;13.040;2022-08-01T12:23:23;100480.81;;;23.14;87.24
20696;BME280;10507;52.754;13.040;2022-08-01T12:25:58;100491.41;;;22.91;88.54
20696;BME280;10507;52.754;13.040;2022-08-01T12:28:38;100486.69;;;22.49;90.81
20696;BME280;10507;52.754;13.040;2022-08-01T12:31:10;100557.19;;;22.42;92.11
20696;BME280;10507;52.754;13.040;2022-08-01T12:33:40;100576.41;;;22.40;92.54
20696;BME280;10507;52.754;13.040;2022-08-01T12:36:08;100600.56;;;22.44;92.80
20696;BME280;10507;52.754;13.040;2022-08-01T12:38:43;100616.06;;;22.61;92.24
20696;BME280;10507;52.754;13.040;2022-08-01T12:41:15;100611.69;;;22.68;91.73
20696;BME280;10507;52.754;13.040;2022-08-01T12:43:49;100570.59;;;22.53;91.57
20696;BME280;10507;52.754;13.040;2022-08-01T12:46:20;100590.63;;;22.52;92.60
20696;BME280;10507;52.754;13.040;2022-08-01T12:48:51;100595.38;;;22.50;92.91
20696;BME280;10507;52.754;13.040;2022-08-01T12:51:24;100629.56;;;22.53;93.19
20696;BME280;10507;52.754;13.040;2022-08-01T12:54:01;100675.00;;;22.70;93.39
20696;BME280;10507;52.754;13.040;2022-08-01T12:56:34;100682.38;;;22.96;92.07
20696;BME280;10507;52.754;13.040;2022-08-01T12:59:24;100643.59;;;22.94;91.42
20696;BME280;10507;52.754;13.040;2022-08-01T13:01:54;100634.59;;;23.19;89.87
20696;BME280;10507;52.754;13.040;2022-08-01T13:04:27;100651.38;;;23.33;89.99